createdAt,value
2022-08-03T00:00:19.161Z,20.42
2022-08-03T00:05:21.349Z,20.35
2022-08-03T00:10:23.511Z,20.27
2022-08-03T00:15:25.802Z,20.21
2022-08-03T00:20:28.510Z,20.16
2022-08-03T00:25:30.835Z,20.14
2022-08-03T00:30:33.436Z,20.13
2022-08-03T00:35:46.534Z,20.07
2022-08-03T00:40:52.555Z,20.00
2022-08-03T00:45:55.024Z,19.98
2022-08-03T00:50:57.145Z,19.91
2022-08-03T00:55:59.421Z,19.90
2022-08-03T01:01:01.632Z,19.83
2022-08-03T01:06:16.858Z,19.85
2022-08-03T01:11:32.064Z,19.87
2022-08-03T01:16:47.471Z,19.76
2022-08-03T01:21:49.402Z,19.57
2022-08-03T01:26:57.781Z,19.63
2022-08-03T01:32:59.422Z,19.60
2022-08-03T01:37:35.198Z,19.57
2022-08-03T01:42:43.433Z,19.49
2022-08-03T01:47:47.039Z,19.42
2022-08-03T01:52:50.207Z,19.37
2022-08-03T01:58:05.819Z,19.39
2022-08-03T02:03:12.564Z,19.45
2022-08-03T02:08:18.065Z,19.49
2022-08-03T02:13:21.263Z,19.49
2022-08-03T02:18:24.867Z,19.55
2022-08-03T02:23:26.919Z,19.63
2022-08-03T02:28:40.123Z,19.81
2022-08-03T02:33:48.052Z,19.90
2022-08-03T02:38:56.203Z,20.08
2022-08-03T02:44:06.639Z,20.23
2022-08-03T02:49:40.814Z,20.30
2022-08-03T02:54:36.255Z,20.43
2022-08-03T02:59:40.350Z,20.58
2022-08-03T03:05:54.927Z,20.73
2022-08-03T03:10:07.272Z,20.87
2022-08-03T03:15:10.473Z,21.05
2022-08-03T03:20:12.920Z,21.22
2022-08-03T03:25:15.754Z,21.32
2022-08-03T03:30:17.930Z,21.39
2022-08-03T03:35:20.256Z,21.57
2022-08-03T03:40:22.803Z,21.71
2022-08-03T03:45:25.057Z,21.80
2022-08-03T03:50:28.267Z,21.96
2022-08-03T03:55:30.901Z,22.14
2022-08-03T04:00:33.289Z,22.31
2022-08-03T04:05:54.158Z,22.50
2022-08-03T04:11:31.011Z,22.94
2022-08-03T04:16:39.709Z,22.72
2022-08-03T04:21:47.522Z,22.87
2022-08-03T04:26:52.844Z,23.03
2022-08-03T04:31:57.890Z,23.19
2022-08-03T04:37:03.113Z,23.30
2022-08-03T04:42:09.077Z,23.50
2022-08-03T04:47:11.517Z,23.59
2022-08-03T04:52:13.786Z,23.66
2022-08-03T04:57:22.293Z,23.79
2022-08-03T05:02:25.445Z,23.97
2022-08-03T05:07:34.050Z,24.04
2022-08-03T05:12:39.211Z,24.21
2022-08-03T05:17:41.637Z,24.42
2022-08-03T05:22:43.726Z,24.65
2022-08-03T05:27:45.821Z,25.58
2022-08-03T05:32:48.060Z,26.69
2022-08-03T05:37:54.638Z,28.15
2022-08-03T05:42:57.359Z,29.24
2022-08-03T05:48:00.127Z,29.81
2022-08-03T05:53:03.065Z,30.80
2022-08-03T05:58:05.605Z,32.19
2022-08-03T06:03:07.698Z,32.86
2022-08-03T06:08:09.758Z,34.12
2022-08-03T06:13:17.495Z,34.75
2022-08-03T06:18:21.107Z,35.56
2022-08-03T06:23:25.343Z,36.50
2022-08-03T06:28:52.391Z,37.32
2022-08-03T06:34:33.360Z,38.21
2022-08-03T06:39:18.659Z,38.76
2022-08-03T06:44:20.863Z,40.24
2022-08-03T06:49:23.198Z,40.71
2022-08-03T06:54:25.242Z,41.21
2022-08-03T07:00:06.191Z,41.74
2022-08-03T07:04:50.306Z,41.59
2022-08-03T07:09:56.705Z,41.66
2022-08-03T07:15:02.956Z,41.28
2022-08-03T07:20:08.876Z,41.20
2022-08-03T07:25:11.331Z,41.04
2022-08-03T07:30:14.499Z,40.54
2022-08-03T07:35:24.461Z,40.60
2022-08-03T07:40:31.587Z,41.03
2022-08-03T07:45:34.358Z,42.30
2022-08-03T07:50:36.539Z,43.72
2022-08-03T07:55:38.866Z,45.56
2022-08-03T08:00:41.003Z,46.02
2022-08-03T08:05:43.113Z,46.20
2022-08-03T08:10:57.780Z,46.91
2022-08-03T08:16:01.309Z,47.91
2022-08-03T08:21:03.539Z,48.07
2022-08-03T08:26:06.314Z,49.02
2022-08-03T08:31:08.644Z,49.74
2022-08-03T08:36:14.901Z,49.26
2022-08-03T08:41:17.569Z,49.46
2022-08-03T08:46:23.880Z,49.50
2022-08-03T08:51:54.866Z,48.70
2022-08-03T08:56:56.411Z,48.82
2022-08-03T09:01:58.957Z,49.91
2022-08-03T09:07:19.543Z,49.89
2022-08-03T09:12:40.926Z,47.16
2022-08-03T09:17:48.850Z,46.79
2022-08-03T09:22:57.428Z,48.54
2022-08-03T09:28:11.432Z,50.05
2022-08-03T09:33:17.529Z,49.65
2022-08-03T09:38:24.331Z,49.45
2022-08-03T09:43:27.747Z,48.76
2022-08-03T09:48:31.847Z,48.82
2022-08-03T09:53:59.178Z,50.14
2022-08-03T09:59:02.577Z,49.20
2022-08-03T10:04:05.476Z,47.09
2022-08-03T10:09:13.128Z,47.32
2022-08-03T10:14:22.598Z,48.64
2022-08-03T10:19:25.730Z,50.48
2022-08-03T10:24:30.566Z,50.63
2022-08-03T10:29:39.170Z,51.61
2022-08-03T10:34:44.824Z,51.58
2022-08-03T10:39:56.480Z,51.78
2022-08-03T10:45:09.933Z,52.03
2022-08-03T10:50:13.004Z,52.07
2022-08-03T10:55:52.971Z,52.78
2022-08-03T11:00:55.086Z,51.95
2022-08-03T11:06:20.306Z,51.10
2022-08-03T11:11:23.753Z,49.87
2022-08-03T11:16:27.521Z,49.73
2022-08-03T11:21:51.266Z,47.62
2022-08-03T11:27:13.210Z,46.46
2022-08-03T11:32:37.732Z,47.33
2022-08-03T11:38:04.656Z,48.77
2022-08-03T11:43:22.488Z,49.38
2022-08-03T11:48:34.530Z,48.82
2022-08-03T11:53:42.133Z,47.67
2022-08-03T11:59:01.775Z,46.81
2022-08-03T12:04:16.574Z,43.23
2022-08-03T12:09:21.314Z,41.30
2022-08-03T12:14:49.909Z,40.00
2022-08-03T12:19:45.619Z,38.92
2022-08-03T12:24:47.980Z,38.78
2022-08-03T12:29:58.496Z,38.76
2022-08-03T12:35:02.207Z,38.73
2022-08-03T12:40:10.383Z,40.15
2022-08-03T12:45:30.478Z,41.80
2022-08-03T12:50:35.462Z,43.22
2022-08-03T12:55:56.279Z,44.15
2022-08-03T13:01:05.311Z,44.61
2022-08-03T13:06:25.620Z,44.53
2022-08-03T13:11:57.201Z,43.25
2022-08-03T13:16:50.216Z,42.27
2022-08-03T13:21:53.562Z,40.85
2022-08-03T13:28:01.000Z,39.76
2022-08-03T13:32:29.586Z,38.48
2022-08-03T13:37:34.876Z,37.51
2022-08-03T13:42:38.809Z,36.82
2022-08-03T13:47:41.269Z,35.96
2022-08-03T13:52:43.358Z,35.29
2022-08-03T13:58:03.080Z,34.70
2022-08-03T14:03:14.062Z,34.29
2022-08-03T14:08:17.169Z,33.73
2022-08-03T14:13:19.204Z,33.39
2022-08-03T14:18:29.223Z,33.22
2022-08-03T14:23:40.213Z,33.27
2022-08-03T14:28:43.446Z,33.38
2022-08-03T14:33:45.526Z,33.48
2022-08-03T14:38:47.587Z,33.41
2022-08-03T14:44:00.621Z,33.36
2022-08-03T14:50:30.261Z,33.30
2022-08-03T14:54:30.959Z,33.26
2022-08-03T14:59:56.635Z,33.31
2022-08-03T15:04:55.232Z,33.19
2022-08-03T15:09:57.308Z,33.04
2022-08-03T15:14:59.407Z,32.65
2022-08-03T15:20:27.843Z,32.29
2022-08-03T15:26:28.678Z,31.99
2022-08-03T15:30:45.599Z,31.61
2022-08-03T15:35:48.069Z,31.22
2022-08-03T15:40:54.512Z,30.90
2022-08-03T15:51:18.762Z,30.67
2022-08-03T15:56:20.784Z,30.48
2022-08-03T16:01:23.583Z,30.34
2022-08-03T16:06:29.880Z,30.27
2022-08-03T16:11:37.692Z,30.14
2022-08-03T16:16:40.996Z,30.03
2022-08-03T16:21:48.527Z,29.95
2022-08-03T16:26:51.019Z,29.91
2022-08-03T16:31:53.195Z,29.87
2022-08-03T16:36:55.251Z,29.73
2022-08-03T16:42:01.103Z,29.73
2022-08-03T16:47:03.890Z,29.55
2022-08-03T16:52:07.174Z,29.41
2022-08-03T16:57:09.245Z,29.35
2022-08-03T17:02:26.078Z,29.36
2022-08-03T17:07:29.643Z,29.14
2022-08-03T17:12:32.507Z,28.94
2022-08-03T17:17:47.512Z,28.90
2022-08-03T17:23:14.538Z,28.83
2022-08-03T17:28:48.491Z,28.65
2022-08-03T17:33:54.568Z,28.28
2022-08-03T17:38:57.128Z,28.19
2022-08-03T17:49:24.522Z,27.90
2022-08-03T17:55:57.371Z,27.95
2022-08-03T18:00:35.953Z,27.73
2022-08-03T18:06:11.499Z,27.79
2022-08-03T18:11:21.700Z,27.61
2022-08-03T18:16:57.439Z,27.66
2022-08-03T18:22:02.943Z,27.28
2022-08-03T18:27:08.504Z,27.10
2022-08-03T18:32:21.880Z,26.93
2022-08-03T18:37:27.971Z,26.75
2022-08-03T18:42:32.231Z,26.63
2022-08-03T18:47:55.628Z,26.79
2022-08-03T18:53:19.662Z,26.74
2022-08-03T18:58:51.368Z,26.68
2022-08-03T19:04:04.344Z,26.48
2022-08-03T19:09:12.995Z,26.31
2022-08-03T19:14:20.531Z,26.35
2022-08-03T19:19:44.002Z,26.25
2022-08-03T19:24:49.119Z,26.23
2022-08-03T19:29:58.988Z,26.14
2022-08-03T19:35:05.229Z,26.08
2022-08-03T19:40:15.489Z,25.97
2022-08-03T19:46:04.964Z,26.00
2022-08-03T19:50:58.036Z,25.86
2022-08-03T19:56:05.270Z,25.93
2022-08-03T20:01:19.198Z,25.82
2022-08-03T20:06:23.767Z,25.71
2022-08-03T20:11:29.338Z,25.74
2022-08-03T20:16:31.473Z,25.57
2022-08-03T20:21:35.072Z,25.45
2022-08-03T20:26:41.921Z,25.32
2022-08-03T20:31:45.419Z,25.25
2022-08-03T20:36:47.501Z,25.19
2022-08-03T20:41:49.563Z,25.11
2022-08-03T20:47:00.150Z,25.04
2022-08-03T20:52:03.792Z,24.99
2022-08-03T20:57:09.379Z,24.96
2022-08-03T21:02:12.367Z,24.89
2022-08-03T21:07:24.140Z,24.79
2022-08-03T21:12:47.493Z,24.91
2022-08-03T21:13:04.888Z,28.05
2022-08-03T21:17:53.060Z,24.69
2022-08-03T21:22:56.528Z,24.63
2022-08-03T21:28:00.436Z,24.57
2022-08-03T21:33:06.644Z,24.47
2022-08-03T21:38:20.735Z,24.39
2022-08-03T21:43:32.063Z,24.33
2022-08-03T21:48:40.500Z,24.41
2022-08-03T21:54:03.901Z,24.25
2022-08-03T21:59:13.819Z,24.27
2022-08-03T22:04:49.961Z,24.16
2022-08-03T22:09:50.225Z,23.98
2022-08-03T22:15:00.850Z,23.89
2022-08-03T22:20:08.442Z,23.81
2022-08-03T22:25:16.135Z,23.77
2022-08-03T22:30:19.784Z,23.54
2022-08-03T22:35:24.945Z,23.61
2022-08-03T22:40:27.838Z,23.45
2022-08-03T22:46:07.428Z,23.40
2022-08-03T22:50:52.154Z,23.35
2022-08-03T22:55:55.125Z,23.17
2022-08-03T23:01:08.844Z,23.36
2022-08-03T23:06:11.382Z,23.13
2022-08-03T23:11:18.579Z,23.14
2022-08-03T23:16:29.202Z,22.89
2022-08-03T23:22:00.576Z,22.92
2022-08-03T23:26:56.272Z,22.83
2022-08-03T23:31:59.632Z,22.72
2022-08-03T23:37:02.120Z,22.59
2022-08-03T23:42:04.506Z,22.44
2022-08-03T23:47:06.560Z,22.42
2022-08-03T23:52:29.306Z,22.54
2022-08-03T23:58:03.944Z,22.51
